sensor_id;sensor_type;location;lat;lon;timestamp;temperature;humidity
46652;DHT22;32377;52.182;5.398;2022-09-06T00:01:25;20.20;99.90
46652;DHT22;32377;52.182;5.398;2022-09-06T00:03:51;20.30;99.90
46652;DHT22;32377;52.182;5.398;2022-09-06T00:06:18;20.30;99.90
46652;DHT22;32377;52.182;5.398;2022-09-06T00:08:45;20.20;99.90
46652;DHT22;32377;52.182;5.398;2022-09-06T00:11:11;20.20;99.90
46652;DHT22;32377;52.182;5.398;2022-09-06T00:13:37;20.20;99.90
46652;DHT22;32377;52.182;5.398;2022-09-06T00:16:08;20.10;99.90
46652;DHT22;32377;52.182;5.398;2022-09-06T00:18:34;20.10;99.90
46652;DHT22;32377;52.182;5.398;2022-09-06T00:20:59;20.10;99.90
46652;DHT22;32377;52.182;5.398;2022-09-06T00:23:25;20.00;99.90
46652;DHT22;32377;52.182;5.398;2022-09-06T00:25:51;20.10;99.90
46652;DHT22;32377;52.182;5.398;2022-09-06T00:28:16;20.20;99.90
46652;DHT22;32377;52.182;5.398;2022-09-06T00:30:42;20.20;99.90
46652;DHT22;32377;52.182;5.398;2022-09-06T00:33:07;20.20;99.90
46652;DHT22;32377;52.182;5.398;2022-09-06T00:35:33;20.20;99.90
46652;DHT22;32377;52.182;5.398;2022-09-06T00:38:00;20.20;99.90
46652;DHT22;32377;52.182;5.398;2022-09-06T00:40:27;20.20;99.90
46652;DHT22;32377;52.182;5.398;2022-09-06T00:42:55;20.20;99.90
46652;DHT22;32377;52.182;5.398;2022-09-06T00:45:21;20.20;99.90
46652;DHT22;32377;52.182;5.398;2022-09-06T00:47:47;20.20;99.90
46652;DHT22;32377;52.182;5.398;2022-09-06T00:50:15;20.20;99.90
46652;DHT22;32377;52.182;5.398;2022-09-06T00:52:42;20.20;99.90
46652;DHT22;32377;52.182;5.398;2022-09-06T00:55:09;20.20;99.90
46652;DHT22;32377;52.182;5.398;2022-09-06T00:57:35;20.20;99.90
46652;DHT22;32377;52.182;5.398;2022-09-06T01:00:03;20.20;99.90
46652;DHT22;32377;52.182;5.398;2022-09-06T01:02:29;20.10;99.90
46652;DHT22;32377;52.182;5.398;2022-09-06T01:04:54;20.00;99.90
46652;DHT22;32377;52.182;5.398;2022-09-06T01:10:27;20.00;99.90
46652;DHT22;32377;52.182;5.398;2022-09-06T01:16:35;19.90;99.90
46652;DHT22;32377;52.182;5.398;2022-09-06T01:19:59;19.70;99.90
46652;DHT22;32377;52.182;5.398;2022-09-06T01:28:01;19.70;99.90
46652;DHT22;32377;52.182;5.398;2022-09-06T01:30:33;19.70;99.90
46652;DHT22;32377;52.182;5.398;2022-09-06T01:33:19;19.70;99.90
46652;DHT22;32377;52.182;5.398;2022-09-06T01:35:56;19.70;99.90
46652;DHT22;32377;52.182;5.398;2022-09-06T01:38:24;19.60;99.90
46652;DHT22;32377;52.182;5.398;2022-09-06T01:40:49;19.60;99.90
46652;DHT22;32377;52.182;5.398;2022-09-06T01:43:23;19.60;99.90
46652;DHT22;32377;52.182;5.398;2022-09-06T01:51:46;19.60;99.90
46652;DHT22;32377;52.182;5.398;2022-09-06T01:54:27;19.60;99.90
46652;DHT22;32377;52.182;5.398;2022-09-06T01:57:04;19.60;99.90
46652;DHT22;32377;52.182;5.398;2022-09-06T01:59:47;19.50;99.90
46652;DHT22;32377;52.182;5.398;2022-09-06T02:05:26;19.50;99.90
46652;DHT22;32377;52.182;5.398;2022-09-06T02:07:57;19.50;99.90
46652;DHT22;32377;52.182;5.398;2022-09-06T02:10:28;19.40;99.90
46652;DHT22;32377;52.182;5.398;2022-09-06T02:12:58;19.40;99.90
46652;DHT22;32377;52.182;5.398;2022-09-06T02:15:31;19.40;99.90
46652;DHT22;32377;52.182;5.398;2022-09-06T02:18:04;19.40;99.90
46652;DHT22;32377;52.182;5.398;2022-09-06T02:20:33;19.40;99.90
46652;DHT22;32377;52.182;5.398;2022-09-06T02:23:03;19.30;99.90
46652;DHT22;32377;52.182;5.398;2022-09-06T02:25:37;19.30;99.90
46652;DHT22;32377;52.182;5.398;2022-09-06T02:28:04;19.30;99.90
46652;DHT22;32377;52.182;5.398;2022-09-06T02:30:31;19.30;99.90
46652;DHT22;32377;52.182;5.398;2022-09-06T02:33:02;19.20;99.90
46652;DHT22;32377;52.182;5.398;2022-09-06T02:35:30;19.20;99.90
46652;DHT22;32377;52.182;5.398;2022-09-06T02:37:56;19.20;99.90
46652;DHT22;32377;52.182;5.398;2022-09-06T02:40:22;19.10;99.90
46652;DHT22;32377;52.182;5.398;2022-09-06T02:42:47;19.10;99.90
46652;DHT22;32377;52.182;5.398;2022-09-06T02:45:13;19.00;99.90
46652;DHT22;32377;52.182;5.398;2022-09-06T02:47:39;19.10;99.90
46652;DHT22;32377;52.182;5.398;2022-09-06T02:50:05;19.10;99.90
46652;DHT22;32377;52.182;5.398;2022-09-06T02:52:32;19.10;99.90
46652;DHT22;32377;52.182;5.398;2022-09-06T02:54:58;19.10;99.90
46652;DHT22;32377;52.182;5.398;2022-09-06T02:57:23;19.10;99.90
46652;DHT22;32377;52.182;5.398;2022-09-06T02:59:49;19.10;99.90
46652;DHT22;32377;52.182;5.398;2022-09-06T03:02:14;19.10;99.90
46652;DHT22;32377;52.182;5.398;2022-09-06T03:04:40;19.00;99.90
46652;DHT22;32377;52.182;5.398;2022-09-06T03:07:05;19.10;99.90
46652;DHT22;32377;52.182;5.398;2022-09-06T03:09:31;19.10;99.90
46652;DHT22;32377;52.182;5.398;2022-09-06T03:11:56;19.10;99.90
46652;DHT22;32377;52.182;5.398;2022-09-06T03:14:22;19.10;99.90
46652;DHT22;32377;52.182;5.398;2022-09-06T03:16:48;19.10;99.90
46652;DHT22;32377;52.182;5.398;2022-09-06T03:19:14;19.00;99.90
46652;DHT22;32377;52.182;5.398;2022-09-06T03:21:39;19.00;99.90
46652;DHT22;32377;52.182;5.398;2022-09-06T03:24:05;19.00;99.90
46652;DHT22;32377;52.182;5.398;2022-09-06T03:26:30;18.90;99.90
46652;DHT22;32377;52.182;5.398;2022-09-06T03:28:56;18.90;99.90
46652;DHT22;32377;52.182;5.398;2022-09-06T03:31:22;18.90;99.90
46652;DHT22;32377;52.182;5.398;2022-09-06T03:33:47;18.90;99.90
46652;DHT22;32377;52.182;5.398;2022-09-06T03:36:13;18.90;99.90
46652;DHT22;32377;52.182;5.398;2022-09-06T03:38:38;18.90;99.90
46652;DHT22;32377;52.182;5.398;2022-09-06T03:41:04;18.90;99.90
46652;DHT22;32377;52.182;5.398;2022-09-06T03:43:30;18.90;99.90
46652;DHT22;32377;52.182;5.398;2022-09-06T03:45:56;18.90;99.90
46652;DHT22;32377;52.182;5.398;2022-09-06T03:48:24;18.80;99.90
46652;DHT22;32377;52.182;5.398;2022-09-06T03:50:53;18.80;99.90
46652;DHT22;32377;52.182;5.398;2022-09-06T03:53:19;18.70;99.90
46652;DHT22;32377;52.182;5.398;2022-09-06T03:55:50;18.60;99.90
46652;DHT22;32377;52.182;5.398;2022-09-06T03:58:17;18.60;99.90
46652;DHT22;32377;52.182;5.398;2022-09-06T04:00:43;18.50;99.90
46652;DHT22;32377;52.182;5.398;2022-09-06T04:03:09;18.50;99.90
46652;DHT22;32377;52.182;5.398;2022-09-06T04:05:35;18.50;99.90
46652;DHT22;32377;52.182;5.398;2022-09-06T04:08:01;18.50;99.90
46652;DHT22;32377;52.182;5.398;2022-09-06T04:10:27;18.50;99.90
46652;DHT22;32377;52.182;5.398;2022-09-06T04:12:53;18.40;99.90
46652;DHT22;32377;52.182;5.398;2022-09-06T04:15:19;18.40;99.90
46652;DHT22;32377;52.182;5.398;2022-09-06T04:17:45;18.40;99.90
46652;DHT22;32377;52.182;5.398;2022-09-06T04:20:12;18.40;99.90
46652;DHT22;32377;52.182;5.398;2022-09-06T04:22:38;18.40;99.90
46652;DHT22;32377;52.182;5.398;2022-09-06T04:25:04;18.40;99.90
46652;DHT22;32377;52.182;5.398;2022-09-06T04:27:29;18.40;99.90
46652;DHT22;32377;52.182;5.398;2022-09-06T04:29:55;18.40;99.90
46652;DHT22;32377;52.182;5.398;2022-09-06T04:32:21;18.40;99.90
46652;DHT22;32377;52.182;5.398;2022-09-06T04:34:47;18.40;99.90
46652;DHT22;32377;52.182;5.398;2022-09-06T04:37:13;18.40;99.90
46652;DHT22;32377;52.182;5.398;2022-09-06T04:39:42;18.40;99.90
46652;DHT22;32377;52.182;5.398;2022-09-06T04:42:08;18.50;99.90
46652;DHT22;32377;52.182;5.398;2022-09-06T04:44:34;18.40;99.90
46652;DHT22;32377;52.182;5.398;2022-09-06T04:47:07;18.40;99.90
46652;DHT22;32377;52.182;5.398;2022-09-06T04:49:37;18.40;99.90
46652;DHT22;32377;52.182;5.398;2022-09-06T04:52:02;18.40;99.90
46652;DHT22;32377;52.182;5.398;2022-09-06T04:54:28;18.40;99.90
46652;DHT22;32377;52.182;5.398;2022-09-06T04:56:53;18.40;99.90
46652;DHT22;32377;52.182;5.398;2022-09-06T04:59:19;18.40;99.90
46652;DHT22;32377;52.182;5.398;2022-09-06T05:01:44;18.40;99.90
46652;DHT22;32377;52.182;5.398;2022-09-06T05:04:10;18.40;99.90
46652;DHT22;32377;52.182;5.398;2022-09-06T05:06:35;18.30;99.90
46652;DHT22;32377;52.182;5.398;2022-09-06T05:09:02;18.30;99.90
46652;DHT22;32377;52.182;5.398;2022-09-06T05:11:28;18.30;99.90
46652;DHT22;32377;52.182;5.398;2022-09-06T05:13:53;18.30;99.90
46652;DHT22;32377;52.182;5.398;2022-09-06T05:16:19;18.30;99.90
46652;DHT22;32377;52.182;5.398;2022-09-06T05:18:44;18.30;99.90
46652;DHT22;32377;52.182;5.398;2022-09-06T05:21:10;18.30;99.90
46652;DHT22;32377;52.182;5.398;2022-09-06T05:23:35;18.30;99.90
46652;DHT22;32377;52.182;5.398;2022-09-06T05:26:01;18.30;99.90
46652;DHT22;32377;52.182;5.398;2022-09-06T05:28:27;18.30;99.90
46652;DHT22;32377;52.182;5.398;2022-09-06T05:31:04;18.20;99.90
46652;DHT22;32377;52.182;5.398;2022-09-06T05:33:29;18.20;99.90
46652;DHT22;32377;52.182;5.398;2022-09-06T05:35:55;18.30;99.90
46652;DHT22;32377;52.182;5.398;2022-09-06T05:38:20;18.20;99.90
46652;DHT22;32377;52.182;5.398;2022-09-06T05:40:46;18.20;99.90
46652;DHT22;32377;52.182;5.398;2022-09-06T05:43:12;18.20;99.90
46652;DHT22;32377;52.182;5.398;2022-09-06T05:45:37;18.10;99.90
46652;DHT22;32377;52.182;5.398;2022-09-06T05:48:03;18.20;99.90
46652;DHT22;32377;52.182;5.398;2022-09-06T05:50:28;18.20;99.90
46652;DHT22;32377;52.182;5.398;2022-09-06T05:52:54;18.30;99.90
46652;DHT22;32377;52.182;5.398;2022-09-06T05:55:19;18.30;99.90
46652;DHT22;32377;52.182;5.398;2022-09-06T05:57:45;18.30;99.90
46652;DHT22;32377;52.182;5.398;2022-09-06T06:00:11;18.30;99.90
46652;DHT22;32377;52.182;5.398;2022-09-06T06:02:37;18.30;99.90
46652;DHT22;32377;52.182;5.398;2022-09-06T06:05:02;18.30;99.90
46652;DHT22;32377;52.182;5.398;2022-09-06T06:07:28;18.30;99.90
46652;DHT22;32377;52.182;5.398;2022-09-06T06:09:54;18.30;99.90
46652;DHT22;32377;52.182;5.398;2022-09-06T06:12:19;18.30;99.90
46652;DHT22;32377;52.182;5.398;2022-09-06T06:14:45;18.30;99.90
46652;DHT22;32377;52.182;5.398;2022-09-06T06:17:10;18.40;99.90
46652;DHT22;32377;52.182;5.398;2022-09-06T06:19:36;18.40;99.90
46652;DHT22;32377;52.182;5.398;2022-09-06T06:22:02;18.50;99.90
46652;DHT22;32377;52.182;5.398;2022-09-06T06:24:27;18.60;99.90
46652;DHT22;32377;52.182;5.398;2022-09-06T06:26:53;18.70;99.90
46652;DHT22;32377;52.182;5.398;2022-09-06T06:29:19;18.80;99.90
46652;DHT22;32377;52.182;5.398;2022-09-06T06:31:44;18.80;99.90
46652;DHT22;32377;52.182;5.398;2022-09-06T06:34:10;18.90;99.90
46652;DHT22;32377;52.182;5.398;2022-09-06T06:36:36;19.00;99.90
46652;DHT22;32377;52.182;5.398;2022-09-06T06:39:04;19.10;99.90
46652;DHT22;32377;52.182;5.398;2022-09-06T06:41:31;19.20;99.90
46652;DHT22;32377;52.182;5.398;2022-09-06T06:44:01;19.20;99.90
46652;DHT22;32377;52.182;5.398;2022-09-06T06:46:35;19.30;99.90
46652;DHT22;32377;52.182;5.398;2022-09-06T06:49:00;19.40;99.90
46652;DHT22;32377;52.182;5.398;2022-09-06T06:51:28;19.50;99.90
46652;DHT22;32377;52.182;5.398;2022-09-06T06:53:55;19.60;99.90
46652;DHT22;32377;52.182;5.398;2022-09-06T06:56:29;19.70;99.90
46652;DHT22;32377;52.182;5.398;2022-09-06T06:58:57;19.70;99.90
46652;DHT22;32377;52.182;5.398;2022-09-06T07:01:23;19.70;99.90
46652;DHT22;32377;52.182;5.398;2022-09-06T07:03:50;19.80;99.90
46652;DHT22;32377;52.182;5.398;2022-09-06T07:06:17;19.80;99.90
46652;DHT22;32377;52.182;5.398;2022-09-06T07:08:43;19.90;99.90
46652;DHT22;32377;52.182;5.398;2022-09-06T07:11:11;19.90;99.90
46652;DHT22;32377;52.182;5.398;2022-09-06T07:13:37;20.00;99.90
46652;DHT22;32377;52.182;5.398;2022-09-06T07:18:32;20.10;99.90
46652;DHT22;32377;52.182;5.398;2022-09-06T07:20:57;20.20;99.90
46652;DHT22;32377;52.182;5.398;2022-09-06T07:23:23;20.30;99.90
46652;DHT22;32377;52.182;5.398;2022-09-06T07:25:49;20.40;99.90
46652;DHT22;32377;52.182;5.398;2022-09-06T07:28:15;20.50;99.90
46652;DHT22;32377;52.182;5.398;2022-09-06T07:30:41;20.40;99.90
46652;DHT22;32377;52.182;5.398;2022-09-06T07:33:06;20.50;99.90
46652;DHT22;32377;52.182;5.398;2022-09-06T07:35:32;20.50;99.90
46652;DHT22;32377;52.182;5.398;2022-09-06T07:37:59;20.60;99.90
46652;DHT22;32377;52.182;5.398;2022-09-06T07:40:27;20.60;99.90
46652;DHT22;32377;52.182;5.398;2022-09-06T07:42:56;20.70;99.90
46652;DHT22;32377;52.182;5.398;2022-09-06T07:45:22;20.80;99.90
46652;DHT22;32377;52.182;5.398;2022-09-06T07:47:57;20.80;99.90
46652;DHT22;32377;52.182;5.398;2022-09-06T07:50:28;20.80;99.90
46652;DHT22;32377;52.182;5.398;2022-09-06T07:53:02;20.90;99.90
46652;DHT22;32377;52.182;5.398;2022-09-06T07:55:28;21.00;99.90
46652;DHT22;32377;52.182;5.398;2022-09-06T07:57:53;21.10;99.90
46652;DHT22;32377;52.182;5.398;2022-09-06T08:00:19;21.20;99.90
46652;DHT22;32377;52.182;5.398;2022-09-06T08:02:44;21.20;99.90
46652;DHT22;32377;52.182;5.398;2022-09-06T08:05:10;21.20;99.90
46652;DHT22;32377;52.182;5.398;2022-09-06T08:07:35;21.20;99.90
46652;DHT22;32377;52.182;5.398;2022-09-06T08:10:01;21.30;99.90
46652;DHT22;32377;52.182;5.398;2022-09-06T08:12:27;21.40;99.90
46652;DHT22;32377;52.182;5.398;2022-09-06T08:14:53;21.60;99.90
46652;DHT22;32377;52.182;5.398;2022-09-06T08:17:19;21.60;99.90
46652;DHT22;32377;52.182;5.398;2022-09-06T08:19:44;21.70;99.90
46652;DHT22;32377;52.182;5.398;2022-09-06T08:22:10;21.90;99.90
46652;DHT22;32377;52.182;5.398;2022-09-06T08:24:36;21.90;99.90
46652;DHT22;32377;52.182;5.398;2022-09-06T08:27:03;22.00;99.90
46652;DHT22;32377;52.182;5.398;2022-09-06T08:29:32;22.10;99.90
46652;DHT22;32377;52.182;5.398;2022-09-06T08:31:58;22.20;99.90
46652;DHT22;32377;52.182;5.398;2022-09-06T08:34:23;22.30;99.90
46652;DHT22;32377;52.182;5.398;2022-09-06T08:36:49;22.30;99.90
46652;DHT22;32377;52.182;5.398;2022-09-06T08:39:15;22.40;99.90
46652;DHT22;32377;52.182;5.398;2022-09-06T08:41:59;22.50;99.90
46652;DHT22;32377;52.182;5.398;2022-09-06T08:44:36;22.60;99.90
46652;DHT22;32377;52.182;5.398;2022-09-06T08:47:11;22.70;99.90
46652;DHT22;32377;52.182;5.398;2022-09-06T08:50:01;22.80;99.90
46652;DHT22;32377;52.182;5.398;2022-09-06T08:55:29;22.90;99.90
46652;DHT22;32377;52.182;5.398;2022-09-06T08:58:15;22.90;99.90
46652;DHT22;32377;52.182;5.398;2022-09-06T09:00:51;23.00;99.90
46652;DHT22;32377;52.182;5.398;2022-09-06T09:03:25;23.10;99.90
46652;DHT22;32377;52.182;5.398;2022-09-06T09:05:55;23.10;99.90
46652;DHT22;32377;52.182;5.398;2022-09-06T09:08:30;23.20;99.90
46652;DHT22;32377;52.182;5.398;2022-09-06T09:11:00;23.20;99.90
46652;DHT22;32377;52.182;5.398;2022-09-06T09:13:39;23.30;99.90
46652;DHT22;32377;52.182;5.398;2022-09-06T09:16:07;23.30;99.90
46652;DHT22;32377;52.182;5.398;2022-09-06T09:18:35;23.40;99.90
46652;DHT22;32377;52.182;5.398;2022-09-06T09:21:03;23.50;99.90
46652;DHT22;32377;52.182;5.398;2022-09-06T09:23:29;23.50;99.90
46652;DHT22;32377;52.182;5.398;2022-09-06T09:26:01;23.60;99.90
46652;DHT22;32377;52.182;5.398;2022-09-06T09:28:27;23.70;99.90
46652;DHT22;32377;52.182;5.398;2022-09-06T09:30:55;23.80;99.90
46652;DHT22;32377;52.182;5.398;2022-09-06T09:33:33;23.90;99.90
46652;DHT22;32377;52.182;5.398;2022-09-06T09:36:12;23.90;99.90
46652;DHT22;32377;52.182;5.398;2022-09-06T09:38:45;23.90;99.90
46652;DHT22;32377;52.182;5.398;2022-09-06T09:41:33;24.10;99.90
46652;DHT22;32377;52.182;5.398;2022-09-06T09:44:03;24.10;99.90
46652;DHT22;32377;52.182;5.398;2022-09-06T09:46:32;24.20;99.90
46652;DHT22;32377;52.182;5.398;2022-09-06T09:49:09;24.30;99.90
46652;DHT22;32377;52.182;5.398;2022-09-06T09:54:10;24.30;99.90
46652;DHT22;32377;52.182;5.398;2022-09-06T09:56:56;24.50;99.90
46652;DHT22;32377;52.182;5.398;2022-09-06T09:59:29;24.60;99.90
46652;DHT22;32377;52.182;5.398;2022-09-06T10:01:59;24.50;99.90
46652;DHT22;32377;52.182;5.398;2022-09-06T10:04:52;24.60;99.90
46652;DHT22;32377;52.182;5.398;2022-09-06T10:07:27;24.70;99.90
46652;DHT22;32377;52.182;5.398;2022-09-06T10:09:57;24.70;99.90
46652;DHT22;32377;52.182;5.398;2022-09-06T10:12:35;24.60;99.90
46652;DHT22;32377;52.182;5.398;2022-09-06T10:15:05;24.70;99.90
46652;DHT22;32377;52.182;5.398;2022-09-06T10:17:49;24.60;99.90
46652;DHT22;32377;52.182;5.398;2022-09-06T10:20:15;24.70;99.90
46652;DHT22;32377;52.182;5.398;2022-09-06T10:23:21;24.80;99.90
46652;DHT22;32377;52.182;5.398;2022-09-06T10:26:03;25.00;99.90
46652;DHT22;32377;52.182;5.398;2022-09-06T10:28:40;25.00;99.90
46652;DHT22;32377;52.182;5.398;2022-09-06T10:39:56;25.60;99.90
46652;DHT22;32377;52.182;5.398;2022-09-06T10:42:47;25.60;99.90
46652;DHT22;32377;52.182;5.398;2022-09-06T10:48:10;25.60;99.90
46652;DHT22;32377;52.182;5.398;2022-09-06T10:50:41;25.70;99.90
46652;DHT22;32377;52.182;5.398;2022-09-06T10:55:50;25.60;99.90
46652;DHT22;32377;52.182;5.398;2022-09-06T10:58:25;25.60;99.90
46652;DHT22;32377;52.182;5.398;2022-09-06T11:00:52;25.60;99.90
46652;DHT22;32377;52.182;5.398;2022-09-06T11:03:37;25.60;99.90
46652;DHT22;32377;52.182;5.398;2022-09-06T11:06:09;25.40;99.90
46652;DHT22;32377;52.182;5.398;2022-09-06T11:08:54;25.60;99.90
46652;DHT22;32377;52.182;5.398;2022-09-06T11:11:27;25.70;99.90
46652;DHT22;32377;52.182;5.398;2022-09-06T11:13:54;25.70;99.90
46652;DHT22;32377;52.182;5.398;2022-09-06T11:16:33;25.80;99.90
46652;DHT22;32377;52.182;5.398;2022-09-06T11:19:16;25.90;99.90
46652;DHT22;32377;52.182;5.398;2022-09-06T11:21:55;25.90;99.90
46652;DHT22;32377;52.182;5.398;2022-09-06T11:29:48;26.10;99.90
46652;DHT22;32377;52.182;5.398;2022-09-06T11:32:38;26.20;99.90
46652;DHT22;32377;52.182;5.398;2022-09-06T11:35:19;26.20;99.90
46652;DHT22;32377;52.182;5.398;2022-09-06T11:37:45;26.30;99.90
46652;DHT22;32377;52.182;5.398;2022-09-06T11:40:17;26.40;99.90
46652;DHT22;32377;52.182;5.398;2022-09-06T11:45:19;26.40;99.90
46652;DHT22;32377;52.182;5.398;2022-09-06T11:47:52;26.50;99.90
46652;DHT22;32377;52.182;5.398;2022-09-06T11:55:23;26.50;99.90
46652;DHT22;32377;52.182;5.398;2022-09-06T11:57:53;26.60;99.90
46652;DHT22;32377;52.182;5.398;2022-09-06T12:00:22;26.60;99.90
46652;DHT22;32377;52.182;5.398;2022-09-06T12:02:49;26.60;99.90
46652;DHT22;32377;52.182;5.398;2022-09-06T12:05:21;26.70;99.90
46652;DHT22;32377;52.182;5.398;2022-09-06T12:08:13;26.70;99.90
46652;DHT22;32377;52.182;5.398;2022-09-06T12:10:56;26.60;99.90
46652;DHT22;32377;52.182;5.398;2022-09-06T12:16:11;26.60;99.90
46652;DHT22;32377;52.182;5.398;2022-09-06T12:24:00;26.90;99.90
46652;DHT22;32377;52.182;5.398;2022-09-06T12:26:48;26.80;99.90
46652;DHT22;32377;52.182;5.398;2022-09-06T12:29:26;26.90;99.90
46652;DHT22;32377;52.182;5.398;2022-09-06T12:31:59;26.90;99.90
46652;DHT22;32377;52.182;5.398;2022-09-06T12:34:30;27.00;99.90
46652;DHT22;32377;52.182;5.398;2022-09-06T12:37:03;27.10;99.90
46652;DHT22;32377;52.182;5.398;2022-09-06T12:39:30;27.10;99.90
46652;DHT22;32377;52.182;5.398;2022-09-06T12:42:01;27.00;99.90
46652;DHT22;32377;52.182;5.398;2022-09-06T12:44:33;26.80;99.90
46652;DHT22;32377;52.182;5.398;2022-09-06T12:47:09;26.80;99.90
46652;DHT22;32377;52.182;5.398;2022-09-06T12:49:35;26.80;99.90
46652;DHT22;32377;52.182;5.398;2022-09-06T12:52:09;26.80;99.90
46652;DHT22;32377;52.182;5.398;2022-09-06T12:54:48;26.70;99.90
46652;DHT22;32377;52.182;5.398;2022-09-06T12:57:22;26.70;99.90
46652;DHT22;32377;52.182;5.398;2022-09-06T12:59:53;26.60;99.90
46652;DHT22;32377;52.182;5.398;2022-09-06T13:03:13;26.40;99.90
46652;DHT22;32377;52.182;5.398;2022-09-06T13:05:08;26.40;99.90
46652;DHT22;32377;52.182;5.398;2022-09-06T13:07:40;26.40;99.90
46652;DHT22;32377;52.182;5.398;2022-09-06T13:10:07;26.40;99.90
46652;DHT22;32377;52.182;5.398;2022-09-06T13:12:36;26.60;99.90
46652;DHT22;32377;52.182;5.398;2022-09-06T13:15:07;26.70;99.90
46652;DHT22;32377;52.182;5.398;2022-09-06T13:17:36;26.70;99.90
46652;DHT22;32377;52.182;5.398;2022-09-06T13:20:14;26.80;99.90
46652;DHT22;32377;52.182;5.398;2022-09-06T13:22:47;26.80;99.90
46652;DHT22;32377;52.182;5.398;2022-09-06T13:27:45;26.50;99.90
46652;DHT22;32377;52.182;5.398;2022-09-06T13:30:40;26.50;99.90
46652;DHT22;32377;52.182;5.398;2022-09-06T13:33:17;26.50;99.90
46652;DHT22;32377;52.182;5.398;2022-09-06T13:36:21;26.50;99.90
46652;DHT22;32377;52.182;5.398;2022-09-06T13:38:51;26.40;99.90
46652;DHT22;32377;52.182;5.398;2022-09-06T13:44:03;26.80;99.90
46652;DHT22;32377;52.182;5.398;2022-09-06T13:46:31;26.80;99.90
46652;DHT22;32377;52.182;5.398;2022-09-06T13:48:57;26.80;99.90
46652;DHT22;32377;52.182;5.398;2022-09-06T13:51:24;26.60;99.90
46652;DHT22;32377;52.182;5.398;2022-09-06T13:53:51;26.50;99.90
46652;DHT22;32377;52.182;5.398;2022-09-06T13:56:27;26.50;99.90
46652;DHT22;32377;52.182;5.398;2022-09-06T13:58:54;26.30;99.90
46652;DHT22;32377;52.182;5.398;2022-09-06T14:01:19;26.30;99.90
46652;DHT22;32377;52.182;5.398;2022-09-06T14:03:45;26.40;99.90
46652;DHT22;32377;52.182;5.398;2022-09-06T14:06:11;26.30;99.90
46652;DHT22;32377;52.182;5.398;2022-09-06T14:08:37;26.30;99.90
46652;DHT22;32377;52.182;5.398;2022-09-06T14:11:04;26.50;99.90
46652;DHT22;32377;52.182;5.398;2022-09-06T14:13:29;26.50;99.90
46652;DHT22;32377;52.182;5.398;2022-09-06T14:15:55;26.60;99.90
46652;DHT22;32377;52.182;5.398;2022-09-06T14:18:20;26.70;99.90
46652;DHT22;32377;52.182;5.398;2022-09-06T14:20:52;26.60;99.90
46652;DHT22;32377;52.182;5.398;2022-09-06T14:23:18;26.70;99.90
46652;DHT22;32377;52.182;5.398;2022-09-06T14:25:43;26.90;99.90
46652;DHT22;32377;52.182;5.398;2022-09-06T14:28:09;27.00;99.90
46652;DHT22;32377;52.182;5.398;2022-09-06T14:30:34;27.20;99.90
46652;DHT22;32377;52.182;5.398;2022-09-06T14:33:02;27.20;99.90
46652;DHT22;32377;52.182;5.398;2022-09-06T14:35:30;27.00;99.90
46652;DHT22;32377;52.182;5.398;2022-09-06T14:37:56;26.90;99.90
46652;DHT22;32377;52.182;5.398;2022-09-06T14:40:22;26.90;99.90
46652;DHT22;32377;52.182;5.398;2022-09-06T14:42:48;27.00;99.90
46652;DHT22;32377;52.182;5.398;2022-09-06T14:45:13;27.30;99.90
46652;DHT22;32377;52.182;5.398;2022-09-06T14:47:39;27.30;99.90
46652;DHT22;32377;52.182;5.398;2022-09-06T14:50:05;27.50;99.90
46652;DHT22;32377;52.182;5.398;2022-09-06T14:52:30;27.50;99.90
46652;DHT22;32377;52.182;5.398;2022-09-06T14:54:56;27.50;99.90
46652;DHT22;32377;52.182;5.398;2022-09-06T14:57:22;27.40;99.90
46652;DHT22;32377;52.182;5.398;2022-09-06T14:59:47;27.40;99.90
46652;DHT22;32377;52.182;5.398;2022-09-06T15:02:13;27.30;99.90
46652;DHT22;32377;52.182;5.398;2022-09-06T15:04:39;27.10;99.90
46652;DHT22;32377;52.182;5.398;2022-09-06T15:07:04;27.10;99.90
46652;DHT22;32377;52.182;5.398;2022-09-06T15:09:30;26.80;99.90
46652;DHT22;32377;52.182;5.398;2022-09-06T15:11:55;26.80;99.90
46652;DHT22;32377;52.182;5.398;2022-09-06T15:14:23;26.80;99.90
46652;DHT22;32377;52.182;5.398;2022-09-06T15:16:50;26.80;99.90
46652;DHT22;32377;52.182;5.398;2022-09-06T15:19:18;26.70;99.90
46652;DHT22;32377;52.182;5.398;2022-09-06T15:21:43;26.70;99.90
46652;DHT22;32377;52.182;5.398;2022-09-06T15:24:10;26.70;99.90
46652;DHT22;32377;52.182;5.398;2022-09-06T15:26:35;26.60;99.90
46652;DHT22;32377;52.182;5.398;2022-09-06T15:29:01;26.60;99.90
46652;DHT22;32377;52.182;5.398;2022-09-06T15:31:27;26.50;99.90
46652;DHT22;32377;52.182;5.398;2022-09-06T15:33:53;26.50;99.90
46652;DHT22;32377;52.182;5.398;2022-09-06T15:36:19;26.50;99.90
46652;DHT22;32377;52.182;5.398;2022-09-06T15:38:48;26.50;99.90
46652;DHT22;32377;52.182;5.398;2022-09-06T15:41:19;26.40;99.90
46652;DHT22;32377;52.182;5.398;2022-09-06T15:43:47;26.40;99.90
46652;DHT22;32377;52.182;5.398;2022-09-06T15:46:15;26.30;99.90
46652;DHT22;32377;52.182;5.398;2022-09-06T15:51:06;26.40;99.90
46652;DHT22;32377;52.182;5.398;2022-09-06T15:53:32;26.60;99.90
46652;DHT22;32377;52.182;5.398;2022-09-06T15:55:58;26.70;99.90
46652;DHT22;32377;52.182;5.398;2022-09-06T15:58:26;26.70;99.90
46652;DHT22;32377;52.182;5.398;2022-09-06T16:01:13;26.70;99.90
46652;DHT22;32377;52.182;5.398;2022-09-06T16:04:05;26.50;99.90
46652;DHT22;32377;52.182;5.398;2022-09-06T16:06:36;26.50;99.90
46652;DHT22;32377;52.182;5.398;2022-09-06T16:09:08;26.40;99.90
46652;DHT22;32377;52.182;5.398;2022-09-06T16:11:34;26.40;99.90
46652;DHT22;32377;52.182;5.398;2022-09-06T16:14:04;26.40;99.90
46652;DHT22;32377;52.182;5.398;2022-09-06T16:16:31;26.30;99.90
46652;DHT22;32377;52.182;5.398;2022-09-06T16:18:57;26.20;99.90
46652;DHT22;32377;52.182;5.398;2022-09-06T16:21:25;26.20;99.90
46652;DHT22;32377;52.182;5.398;2022-09-06T16:23:57;26.10;99.90
46652;DHT22;32377;52.182;5.398;2022-09-06T16:26:25;25.90;99.90
46652;DHT22;32377;52.182;5.398;2022-09-06T16:28:51;25.90;99.90
46652;DHT22;32377;52.182;5.398;2022-09-06T16:31:18;25.90;99.90
46652;DHT22;32377;52.182;5.398;2022-09-06T16:33:44;25.80;99.90
46652;DHT22;32377;52.182;5.398;2022-09-06T16:36:11;25.80;99.90
46652;DHT22;32377;52.182;5.398;2022-09-06T16:38:38;25.80;99.90
46652;DHT22;32377;52.182;5.398;2022-09-06T16:41:12;25.90;99.90
46652;DHT22;32377;52.182;5.398;2022-09-06T16:43:40;25.90;99.90
46652;DHT22;32377;52.182;5.398;2022-09-06T16:46:05;25.90;99.90
46652;DHT22;32377;52.182;5.398;2022-09-06T16:48:31;25.70;99.90
46652;DHT22;32377;52.182;5.398;2022-09-06T16:50:57;25.70;99.90
46652;DHT22;32377;52.182;5.398;2022-09-06T16:53:31;25.60;99.90
46652;DHT22;32377;52.182;5.398;2022-09-06T16:56:01;25.60;99.90